Manchester, South Dakota
Current Conditions -  °F | °C
As of 2:55 AM on Wednesday 26 Nov 2014 (Local Time) from KHON Reporting Station
Overcast Overcast  
Wind Chill: 18°   Ceiling: 1400
Heat Index: 30°   Visibility: 8mi
Dew Point: 28°   Wind: 18mph
Humidity: 92%   Direction: 350°N
Pressure: 29.92"   Gusts: NA
Location:  44.3062°N, 97.8068°W
Report Text: KHON 260855Z AUTO 35016KT 8SM SCT008 OVC014 M01/M02 A2992 RMK AO2 PRESRR SLP146 60000 T10111022 51030
Loading
Personal Weather Stations






























Interactive Weather Map New forecast layout! Learn more

10-Day Weather Forecast

Advertisements
Track Severe Weather on mobile